sensor_id;sensor_type;location;lat;lon;timestamp;P1;durP1;ratioP1;P2;durP2;ratioP2
6852;SDS011;3465;42.144;24.722;2022-12-20T00:02:23;16.80;;;7.87;;
6852;SDS011;3465;42.144;24.722;2022-12-20T00:04:48;16.97;;;8.23;;
6852;SDS011;3465;42.144;24.722;2022-12-20T00:07:16;16.80;;;7.43;;
6852;SDS011;3465;42.144;24.722;2022-12-20T00:09:42;19.30;;;7.83;;
6852;SDS011;3465;42.144;24.722;2022-12-20T00:12:07;15.67;;;7.97;;
6852;SDS011;3465;42.144;24.722;2022-12-20T00:14:33;16.37;;;8.27;;
6852;SDS011;3465;42.144;24.722;2022-12-20T00:16:58;17.40;;;7.90;;
6852;SDS011;3465;42.144;24.722;2022-12-20T00:19:23;20.13;;;8.47;;
6852;SDS011;3465;42.144;24.722;2022-12-20T00:21:49;15.37;;;7.83;;
6852;SDS011;3465;42.144;24.722;2022-12-20T00:24:14;19.10;;;7.93;;
6852;SDS011;3465;42.144;24.722;2022-12-20T00:26:40;17.97;;;8.17;;
6852;SDS011;3465;42.144;24.722;2022-12-20T00:29:05;20.43;;;8.47;;
6852;SDS011;3465;42.144;24.722;2022-12-20T00:31:31;22.70;;;8.50;;
6852;SDS011;3465;42.144;24.722;2022-12-20T00:33:57;20.33;;;8.93;;
6852;SDS011;3465;42.144;24.722;2022-12-20T00:36:25;16.17;;;7.73;;
6852;SDS011;3465;42.144;24.722;2022-12-20T00:38:52;21.17;;;8.77;;
6852;SDS011;3465;42.144;24.722;2022-12-20T00:41:20;17.07;;;7.93;;
6852;SDS011;3465;42.144;24.722;2022-12-20T00:43:53;19.13;;;7.87;;
6852;SDS011;3465;42.144;24.722;2022-12-20T00:46:19;17.97;;;8.43;;
6852;SDS011;3465;42.144;24.722;2022-12-20T00:48:47;17.57;;;7.83;;
6852;SDS011;3465;42.144;24.722;2022-12-20T00:51:14;15.53;;;7.40;;
6852;SDS011;3465;42.144;24.722;2022-12-20T00:53:41;18.90;;;8.20;;
6852;SDS011;3465;42.144;24.722;2022-12-20T00:56:07;16.73;;;7.47;;
6852;SDS011;3465;42.144;24.722;2022-12-20T00:58:34;22.33;;;8.77;;
6852;SDS011;3465;42.144;24.722;2022-12-20T01:01:02;23.40;;;9.60;;
6852;SDS011;3465;42.144;24.722;2022-12-20T01:03:28;23.73;;;9.33;;
6852;SDS011;3465;42.144;24.722;2022-12-20T01:05:57;18.23;;;8.73;;
6852;SDS011;3465;42.144;24.722;2022-12-20T01:08:24;27.37;;;9.60;;
6852;SDS011;3465;42.144;24.722;2022-12-20T01:13:28;22.63;;;9.73;;
6852;SDS011;3465;42.144;24.722;2022-12-20T01:15:54;25.27;;;9.93;;
6852;SDS011;3465;42.144;24.722;2022-12-20T01:18:20;26.50;;;8.87;;
6852;SDS011;3465;42.144;24.722;2022-12-20T01:20:46;27.10;;;10.67;;
6852;SDS011;3465;42.144;24.722;2022-12-20T01:23:11;26.23;;;10.40;;
6852;SDS011;3465;42.144;24.722;2022-12-20T01:25:37;24.47;;;9.47;;
6852;SDS011;3465;42.144;24.722;2022-12-20T01:28:02;24.17;;;10.30;;
6852;SDS011;3465;42.144;24.722;2022-12-20T01:30:28;23.63;;;9.73;;
6852;SDS011;3465;42.144;24.722;2022-12-20T01:32:54;24.40;;;10.50;;
6852;SDS011;3465;42.144;24.722;2022-12-20T01:35:19;24.87;;;10.13;;
6852;SDS011;3465;42.144;24.722;2022-12-20T01:37:44;23.83;;;9.83;;
6852;SDS011;3465;42.144;24.722;2022-12-20T01:40:10;22.97;;;9.73;;
6852;SDS011;3465;42.144;24.722;2022-12-20T01:42:36;33.57;;;10.50;;
6852;SDS011;3465;42.144;24.722;2022-12-20T01:45:02;20.87;;;9.67;;
6852;SDS011;3465;42.144;24.722;2022-12-20T01:47:37;23.37;;;9.43;;
6852;SDS011;3465;42.144;24.722;2022-12-20T01:50:03;25.77;;;9.43;;
6852;SDS011;3465;42.144;24.722;2022-12-20T01:52:33;25.30;;;8.53;;
6852;SDS011;3465;42.144;24.722;2022-12-20T01:57:43;29.17;;;9.47;;
6852;SDS011;3465;42.144;24.722;2022-12-20T02:00:12;30.43;;;11.03;;
6852;SDS011;3465;42.144;24.722;2022-12-20T02:02:38;21.53;;;8.77;;
6852;SDS011;3465;42.144;24.722;2022-12-20T02:05:04;23.80;;;9.50;;
6852;SDS011;3465;42.144;24.722;2022-12-20T02:07:30;28.87;;;10.10;;
6852;SDS011;3465;42.144;24.722;2022-12-20T02:09:58;20.80;;;9.07;;
6852;SDS011;3465;42.144;24.722;2022-12-20T02:12:28;23.57;;;9.80;;
6852;SDS011;3465;42.144;24.722;2022-12-20T02:34:26;25.33;;;9.63;;
6852;SDS011;3465;42.144;24.722;2022-12-20T02:36:54;24.97;;;9.33;;
6852;SDS011;3465;42.144;24.722;2022-12-20T02:39:19;30.13;;;9.90;;
6852;SDS011;3465;42.144;24.722;2022-12-20T02:41:48;27.53;;;10.03;;
6852;SDS011;3465;42.144;24.722;2022-12-20T02:44:18;22.33;;;9.23;;
6852;SDS011;3465;42.144;24.722;2022-12-20T02:47:08;30.23;;;9.43;;
6852;SDS011;3465;42.144;24.722;2022-12-20T02:49:37;21.83;;;9.83;;
6852;SDS011;3465;42.144;24.722;2022-12-20T02:52:05;20.90;;;9.17;;
6852;SDS011;3465;42.144;24.722;2022-12-20T02:54:32;25.80;;;10.70;;
6852;SDS011;3465;42.144;24.722;2022-12-20T02:57:00;24.37;;;10.07;;
6852;SDS011;3465;42.144;24.722;2022-12-20T02:59:35;23.83;;;9.77;;
6852;SDS011;3465;42.144;24.722;2022-12-20T03:02:05;23.37;;;9.77;;
6852;SDS011;3465;42.144;24.722;2022-12-20T03:04:33;23.17;;;10.10;;
6852;SDS011;3465;42.144;24.722;2022-12-20T03:07:06;26.73;;;9.30;;
6852;SDS011;3465;42.144;24.722;2022-12-20T03:09:34;26.33;;;9.80;;
6852;SDS011;3465;42.144;24.722;2022-12-20T03:12:04;18.47;;;9.17;;
6852;SDS011;3465;42.144;24.722;2022-12-20T03:14:30;27.53;;;10.10;;
6852;SDS011;3465;42.144;24.722;2022-12-20T03:16:56;24.40;;;9.77;;
6852;SDS011;3465;42.144;24.722;2022-12-20T03:19:22;25.67;;;9.70;;
6852;SDS011;3465;42.144;24.722;2022-12-20T03:21:48;21.37;;;9.73;;
6852;SDS011;3465;42.144;24.722;2022-12-20T03:24:14;24.23;;;9.47;;
6852;SDS011;3465;42.144;24.722;2022-12-20T03:26:40;26.70;;;10.43;;
6852;SDS011;3465;42.144;24.722;2022-12-20T03:29:05;26.33;;;10.73;;
6852;SDS011;3465;42.144;24.722;2022-12-20T03:31:31;23.63;;;10.33;;
6852;SDS011;3465;42.144;24.722;2022-12-20T03:33:57;23.57;;;10.20;;
6852;SDS011;3465;42.144;24.722;2022-12-20T03:36:22;25.03;;;9.80;;
6852;SDS011;3465;42.144;24.722;2022-12-20T03:38:49;23.60;;;10.03;;
6852;SDS011;3465;42.144;24.722;2022-12-20T03:41:15;23.23;;;9.90;;
6852;SDS011;3465;42.144;24.722;2022-12-20T03:43:41;27.70;;;10.93;;
6852;SDS011;3465;42.144;24.722;2022-12-20T03:46:07;27.47;;;10.83;;
6852;SDS011;3465;42.144;24.722;2022-12-20T03:48:32;29.13;;;11.20;;
6852;SDS011;3465;42.144;24.722;2022-12-20T03:50:58;26.67;;;11.27;;
6852;SDS011;3465;42.144;24.722;2022-12-20T03:53:23;31.90;;;11.13;;
6852;SDS011;3465;42.144;24.722;2022-12-20T03:55:48;27.27;;;10.73;;
6852;SDS011;3465;42.144;24.722;2022-12-20T03:58:14;22.67;;;11.23;;
6852;SDS011;3465;42.144;24.722;2022-12-20T04:00:39;22.43;;;10.47;;
6852;SDS011;3465;42.144;24.722;2022-12-20T04:03:05;20.50;;;10.47;;
6852;SDS011;3465;42.144;24.722;2022-12-20T04:05:30;29.37;;;10.27;;
6852;SDS011;3465;42.144;24.722;2022-12-20T04:07:55;24.87;;;10.63;;
6852;SDS011;3465;42.144;24.722;2022-12-20T04:10:21;25.37;;;10.50;;
6852;SDS011;3465;42.144;24.722;2022-12-20T04:12:46;27.90;;;11.20;;
6852;SDS011;3465;42.144;24.722;2022-12-20T04:15:11;26.57;;;10.63;;
6852;SDS011;3465;42.144;24.722;2022-12-20T04:17:37;30.03;;;11.27;;
6852;SDS011;3465;42.144;24.722;2022-12-20T04:20:02;27.67;;;11.37;;
6852;SDS011;3465;42.144;24.722;2022-12-20T04:22:51;25.47;;;10.80;;
6852;SDS011;3465;42.144;24.722;2022-12-20T04:25:18;26.73;;;10.50;;
6852;SDS011;3465;42.144;24.722;2022-12-20T04:27:45;23.53;;;10.10;;
6852;SDS011;3465;42.144;24.722;2022-12-20T04:30:11;26.93;;;9.83;;
6852;SDS011;3465;42.144;24.722;2022-12-20T04:32:37;27.80;;;11.10;;
6852;SDS011;3465;42.144;24.722;2022-12-20T04:35:03;30.00;;;12.23;;
6852;SDS011;3465;42.144;24.722;2022-12-20T04:37:29;31.27;;;13.27;;
6852;SDS011;3465;42.144;24.722;2022-12-20T04:39:55;26.63;;;11.03;;
6852;SDS011;3465;42.144;24.722;2022-12-20T04:42:22;30.43;;;11.50;;
6852;SDS011;3465;42.144;24.722;2022-12-20T04:44:48;29.23;;;11.93;;
6852;SDS011;3465;42.144;24.722;2022-12-20T04:47:13;24.97;;;10.13;;
6852;SDS011;3465;42.144;24.722;2022-12-20T04:49:38;28.27;;;10.83;;
6852;SDS011;3465;42.144;24.722;2022-12-20T04:52:04;29.10;;;10.80;;
6852;SDS011;3465;42.144;24.722;2022-12-20T04:54:48;29.40;;;10.97;;
6852;SDS011;3465;42.144;24.722;2022-12-20T04:57:13;27.23;;;11.17;;
6852;SDS011;3465;42.144;24.722;2022-12-20T04:59:39;27.47;;;10.23;;
6852;SDS011;3465;42.144;24.722;2022-12-20T05:02:05;32.40;;;12.33;;
6852;SDS011;3465;42.144;24.722;2022-12-20T05:04:30;33.03;;;12.33;;
6852;SDS011;3465;42.144;24.722;2022-12-20T05:06:56;29.00;;;12.13;;
6852;SDS011;3465;42.144;24.722;2022-12-20T05:09:21;34.67;;;13.53;;
6852;SDS011;3465;42.144;24.722;2022-12-20T05:11:46;37.07;;;13.80;;
6852;SDS011;3465;42.144;24.722;2022-12-20T05:14:12;41.57;;;15.70;;
6852;SDS011;3465;42.144;24.722;2022-12-20T05:16:37;45.20;;;15.60;;
6852;SDS011;3465;42.144;24.722;2022-12-20T05:19:03;64.77;;;20.23;;
6852;SDS011;3465;42.144;24.722;2022-12-20T05:21:29;126.43;;;42.30;;
6852;SDS011;3465;42.144;24.722;2022-12-20T05:24:13;97.50;;;36.63;;
6852;SDS011;3465;42.144;24.722;2022-12-20T05:26:57;73.43;;;25.73;;
6852;SDS011;3465;42.144;24.722;2022-12-20T05:29:23;44.00;;;18.13;;
6852;SDS011;3465;42.144;24.722;2022-12-20T05:31:48;41.90;;;15.53;;
6852;SDS011;3465;42.144;24.722;2022-12-20T05:34:14;41.90;;;15.20;;
6852;SDS011;3465;42.144;24.722;2022-12-20T05:36:39;47.80;;;16.27;;
6852;SDS011;3465;42.144;24.722;2022-12-20T05:39:05;43.47;;;14.83;;
6852;SDS011;3465;42.144;24.722;2022-12-20T05:41:30;40.37;;;14.77;;
6852;SDS011;3465;42.144;24.722;2022-12-20T05:43:56;47.57;;;15.13;;
6852;SDS011;3465;42.144;24.722;2022-12-20T05:46:22;40.93;;;16.07;;
6852;SDS011;3465;42.144;24.722;2022-12-20T05:48:47;47.10;;;17.00;;
6852;SDS011;3465;42.144;24.722;2022-12-20T05:51:12;41.97;;;16.67;;
6852;SDS011;3465;42.144;24.722;2022-12-20T05:53:38;46.37;;;16.63;;
6852;SDS011;3465;42.144;24.722;2022-12-20T05:56:03;44.47;;;17.23;;
6852;SDS011;3465;42.144;24.722;2022-12-20T05:58:29;44.30;;;15.70;;
6852;SDS011;3465;42.144;24.722;2022-12-20T06:00:54;46.43;;;16.53;;
6852;SDS011;3465;42.144;24.722;2022-12-20T06:03:20;47.80;;;17.00;;
6852;SDS011;3465;42.144;24.722;2022-12-20T06:05:46;46.13;;;16.20;;
6852;SDS011;3465;42.144;24.722;2022-12-20T06:08:12;42.60;;;15.53;;
6852;SDS011;3465;42.144;24.722;2022-12-20T06:10:38;42.93;;;13.97;;
6852;SDS011;3465;42.144;24.722;2022-12-20T06:13:05;45.37;;;16.00;;
6852;SDS011;3465;42.144;24.722;2022-12-20T06:15:31;38.90;;;14.73;;
6852;SDS011;3465;42.144;24.722;2022-12-20T06:17:57;38.87;;;15.47;;
6852;SDS011;3465;42.144;24.722;2022-12-20T06:20:22;51.37;;;15.30;;
6852;SDS011;3465;42.144;24.722;2022-12-20T06:22:48;38.67;;;15.23;;
6852;SDS011;3465;42.144;24.722;2022-12-20T06:25:16;46.07;;;17.17;;
6852;SDS011;3465;42.144;24.722;2022-12-20T06:27:42;41.30;;;16.10;;
6852;SDS011;3465;42.144;24.722;2022-12-20T06:30:08;42.20;;;16.43;;
6852;SDS011;3465;42.144;24.722;2022-12-20T06:32:34;42.30;;;15.83;;
6852;SDS011;3465;42.144;24.722;2022-12-20T06:35:00;41.27;;;15.93;;
6852;SDS011;3465;42.144;24.722;2022-12-20T06:37:26;44.53;;;15.33;;
6852;SDS011;3465;42.144;24.722;2022-12-20T06:39:51;46.43;;;15.03;;
6852;SDS011;3465;42.144;24.722;2022-12-20T06:42:16;42.67;;;16.73;;
6852;SDS011;3465;42.144;24.722;2022-12-20T06:44:42;50.37;;;17.23;;
6852;SDS011;3465;42.144;24.722;2022-12-20T06:47:08;42.43;;;15.27;;
6852;SDS011;3465;42.144;24.722;2022-12-20T06:49:34;43.63;;;15.73;;
6852;SDS011;3465;42.144;24.722;2022-12-20T06:51:59;36.50;;;13.77;;
6852;SDS011;3465;42.144;24.722;2022-12-20T06:54:24;40.10;;;13.37;;
6852;SDS011;3465;42.144;24.722;2022-12-20T06:56:50;53.73;;;14.73;;
6852;SDS011;3465;42.144;24.722;2022-12-20T06:59:15;36.37;;;14.80;;
6852;SDS011;3465;42.144;24.722;2022-12-20T07:01:41;43.30;;;14.70;;
6852;SDS011;3465;42.144;24.722;2022-12-20T07:04:06;36.83;;;15.60;;
6852;SDS011;3465;42.144;24.722;2022-12-20T07:06:31;38.47;;;13.53;;
6852;SDS011;3465;42.144;24.722;2022-12-20T07:08:57;41.63;;;14.53;;
6852;SDS011;3465;42.144;24.722;2022-12-20T07:11:22;43.60;;;15.43;;
6852;SDS011;3465;42.144;24.722;2022-12-20T07:13:48;35.60;;;15.60;;
6852;SDS011;3465;42.144;24.722;2022-12-20T07:16:14;40.50;;;14.77;;
6852;SDS011;3465;42.144;24.722;2022-12-20T07:18:39;32.80;;;13.63;;
6852;SDS011;3465;42.144;24.722;2022-12-20T07:21:05;33.53;;;13.30;;
6852;SDS011;3465;42.144;24.722;2022-12-20T07:23:30;38.23;;;12.93;;
6852;SDS011;3465;42.144;24.722;2022-12-20T07:25:57;35.93;;;15.13;;
6852;SDS011;3465;42.144;24.722;2022-12-20T07:28:24;34.70;;;13.37;;
6852;SDS011;3465;42.144;24.722;2022-12-20T07:30:51;29.90;;;12.73;;
6852;SDS011;3465;42.144;24.722;2022-12-20T07:33:17;32.60;;;12.60;;
6852;SDS011;3465;42.144;24.722;2022-12-20T07:35:42;32.07;;;11.50;;
6852;SDS011;3465;42.144;24.722;2022-12-20T07:38:09;38.57;;;13.17;;
6852;SDS011;3465;42.144;24.722;2022-12-20T07:40:38;29.20;;;12.67;;
6852;SDS011;3465;42.144;24.722;2022-12-20T07:43:05;26.37;;;12.20;;
6852;SDS011;3465;42.144;24.722;2022-12-20T07:45:31;32.43;;;12.93;;
6852;SDS011;3465;42.144;24.722;2022-12-20T07:47:56;25.53;;;11.40;;
6852;SDS011;3465;42.144;24.722;2022-12-20T07:50:21;32.53;;;13.47;;
6852;SDS011;3465;42.144;24.722;2022-12-20T07:52:48;24.13;;;11.07;;
6852;SDS011;3465;42.144;24.722;2022-12-20T07:55:14;30.67;;;12.57;;
6852;SDS011;3465;42.144;24.722;2022-12-20T07:57:48;26.00;;;11.77;;
6852;SDS011;3465;42.144;24.722;2022-12-20T08:00:17;26.43;;;11.53;;
6852;SDS011;3465;42.144;24.722;2022-12-20T08:02:44;24.43;;;10.93;;
6852;SDS011;3465;42.144;24.722;2022-12-20T08:05:16;25.40;;;12.00;;
6852;SDS011;3465;42.144;24.722;2022-12-20T08:07:42;25.67;;;12.27;;
6852;SDS011;3465;42.144;24.722;2022-12-20T08:10:11;25.27;;;11.73;;
6852;SDS011;3465;42.144;24.722;2022-12-20T08:12:39;33.57;;;12.60;;
6852;SDS011;3465;42.144;24.722;2022-12-20T08:15:06;24.63;;;10.83;;
6852;SDS011;3465;42.144;24.722;2022-12-20T08:17:32;26.43;;;12.03;;
6852;SDS011;3465;42.144;24.722;2022-12-20T08:19:57;29.03;;;12.07;;
6852;SDS011;3465;42.144;24.722;2022-12-20T08:22:24;25.37;;;11.37;;
6852;SDS011;3465;42.144;24.722;2022-12-20T08:24:50;27.00;;;12.23;;
6852;SDS011;3465;42.144;24.722;2022-12-20T08:27:15;31.20;;;12.87;;
6852;SDS011;3465;42.144;24.722;2022-12-20T08:29:40;25.10;;;11.93;;
6852;SDS011;3465;42.144;24.722;2022-12-20T08:32:06;28.03;;;11.97;;
6852;SDS011;3465;42.144;24.722;2022-12-20T08:34:31;31.77;;;12.43;;
6852;SDS011;3465;42.144;24.722;2022-12-20T08:36:57;29.20;;;12.43;;
6852;SDS011;3465;42.144;24.722;2022-12-20T08:39:23;25.73;;;11.90;;
6852;SDS011;3465;42.144;24.722;2022-12-20T08:41:48;28.13;;;12.23;;
6852;SDS011;3465;42.144;24.722;2022-12-20T08:44:13;27.60;;;11.50;;
6852;SDS011;3465;42.144;24.722;2022-12-20T08:46:39;24.00;;;11.30;;
6852;SDS011;3465;42.144;24.722;2022-12-20T08:49:04;31.60;;;12.53;;
6852;SDS011;3465;42.144;24.722;2022-12-20T08:51:30;25.07;;;11.90;;
6852;SDS011;3465;42.144;24.722;2022-12-20T08:53:55;27.33;;;11.77;;
6852;SDS011;3465;42.144;24.722;2022-12-20T08:56:21;27.47;;;11.70;;
6852;SDS011;3465;42.144;24.722;2022-12-20T08:58:46;27.13;;;11.83;;
6852;SDS011;3465;42.144;24.722;2022-12-20T09:01:13;28.47;;;12.20;;
6852;SDS011;3465;42.144;24.722;2022-12-20T09:03:41;24.97;;;11.07;;
6852;SDS011;3465;42.144;24.722;2022-12-20T09:06:08;27.97;;;11.87;;
6852;SDS011;3465;42.144;24.722;2022-12-20T09:08:36;28.87;;;12.43;;
6852;SDS011;3465;42.144;24.722;2022-12-20T09:11:07;29.33;;;12.97;;
6852;SDS011;3465;42.144;24.722;2022-12-20T09:13:41;33.27;;;13.17;;
6852;SDS011;3465;42.144;24.722;2022-12-20T09:16:07;27.60;;;11.23;;
6852;SDS011;3465;42.144;24.722;2022-12-20T09:18:33;24.50;;;11.00;;
6852;SDS011;3465;42.144;24.722;2022-12-20T09:20:59;24.07;;;10.17;;
6852;SDS011;3465;42.144;24.722;2022-12-20T09:23:27;20.10;;;9.60;;
6852;SDS011;3465;42.144;24.722;2022-12-20T09:25:52;29.90;;;12.73;;
6852;SDS011;3465;42.144;24.722;2022-12-20T09:28:18;31.30;;;11.87;;
6852;SDS011;3465;42.144;24.722;2022-12-20T09:30:44;24.30;;;11.60;;
6852;SDS011;3465;42.144;24.722;2022-12-20T09:33:09;25.17;;;12.40;;
6852;SDS011;3465;42.144;24.722;2022-12-20T09:35:35;24.07;;;11.43;;
6852;SDS011;3465;42.144;24.722;2022-12-20T09:38:00;23.80;;;11.30;;
6852;SDS011;3465;42.144;24.722;2022-12-20T09:40:27;28.10;;;12.17;;
6852;SDS011;3465;42.144;24.722;2022-12-20T09:42:56;27.27;;;11.50;;
6852;SDS011;3465;42.144;24.722;2022-12-20T09:45:27;27.73;;;11.00;;
6852;SDS011;3465;42.144;24.722;2022-12-20T09:47:55;24.53;;;10.97;;
6852;SDS011;3465;42.144;24.722;2022-12-20T09:50:24;25.67;;;11.50;;
6852;SDS011;3465;42.144;24.722;2022-12-20T09:53:22;23.23;;;11.13;;
6852;SDS011;3465;42.144;24.722;2022-12-20T10:01:23;20.47;;;9.83;;
6852;SDS011;3465;42.144;24.722;2022-12-20T10:03:51;23.33;;;10.67;;
6852;SDS011;3465;42.144;24.722;2022-12-20T10:08:58;19.30;;;7.73;;
6852;SDS011;3465;42.144;24.722;2022-12-20T10:15:08;19.70;;;8.87;;
6852;SDS011;3465;42.144;24.722;2022-12-20T10:25:51;18.57;;;9.30;;
6852;SDS011;3465;42.144;24.722;2022-12-20T10:28:19;20.97;;;9.83;;
6852;SDS011;3465;42.144;24.722;2022-12-20T10:30:51;22.90;;;10.10;;
6852;SDS011;3465;42.144;24.722;2022-12-20T10:33:19;17.63;;;8.80;;
6852;SDS011;3465;42.144;24.722;2022-12-20T10:35:46;24.73;;;9.30;;
6852;SDS011;3465;42.144;24.722;2022-12-20T10:38:13;26.77;;;9.30;;
6852;SDS011;3465;42.144;24.722;2022-12-20T10:40:45;21.07;;;9.67;;
6852;SDS011;3465;42.144;24.722;2022-12-20T10:43:27;20.67;;;8.17;;
6852;SDS011;3465;42.144;24.722;2022-12-20T10:46:01;15.67;;;7.80;;
6852;SDS011;3465;42.144;24.722;2022-12-20T10:48:37;18.47;;;9.03;;
6852;SDS011;3465;42.144;24.722;2022-12-20T10:53:52;19.60;;;9.27;;
6852;SDS011;3465;42.144;24.722;2022-12-20T10:59:01;17.10;;;9.07;;
6852;SDS011;3465;42.144;24.722;2022-12-20T11:01:29;15.90;;;9.00;;
6852;SDS011;3465;42.144;24.722;2022-12-20T11:06:38;15.70;;;8.03;;
6852;SDS011;3465;42.144;24.722;2022-12-20T11:14:22;27.63;;;14.53;;
6852;SDS011;3465;42.144;24.722;2022-12-20T11:16:48;20.30;;;10.00;;
6852;SDS011;3465;42.144;24.722;2022-12-20T11:25:04;21.90;;;9.93;;
6852;SDS011;3465;42.144;24.722;2022-12-20T11:36:22;22.07;;;10.07;;
6852;SDS011;3465;42.144;24.722;2022-12-20T11:41:56;22.13;;;9.77;;
6852;SDS011;3465;42.144;24.722;2022-12-20T11:56:43;21.13;;;10.07;;
6852;SDS011;3465;42.144;24.722;2022-12-20T11:58:56;23.90;;;9.40;;
6852;SDS011;3465;42.144;24.722;2022-12-20T12:04:26;21.80;;;9.93;;
6852;SDS011;3465;42.144;24.722;2022-12-20T12:09:41;21.67;;;10.77;;
6852;SDS011;3465;42.144;24.722;2022-12-20T12:15:05;21.80;;;9.73;;
6852;SDS011;3465;42.144;24.722;2022-12-20T12:23:21;18.50;;;9.17;;
6852;SDS011;3465;42.144;24.722;2022-12-20T12:25:48;16.27;;;8.40;;
6852;SDS011;3465;42.144;24.722;2022-12-20T12:28:14;16.90;;;9.33;;
6852;SDS011;3465;42.144;24.722;2022-12-20T12:30:43;18.20;;;9.07;;
6852;SDS011;3465;42.144;24.722;2022-12-20T12:33:49;20.60;;;10.60;;
6852;SDS011;3465;42.144;24.722;2022-12-20T12:41:49;19.13;;;9.17;;
6852;SDS011;3465;42.144;24.722;2022-12-20T12:47:02;20.57;;;9.53;;
6852;SDS011;3465;42.144;24.722;2022-12-20T12:49:35;22.23;;;9.10;;
6852;SDS011;3465;42.144;24.722;2022-12-20T12:52:03;28.67;;;10.67;;
6852;SDS011;3465;42.144;24.722;2022-12-20T12:54:33;23.80;;;10.50;;
6852;SDS011;3465;42.144;24.722;2022-12-20T12:57:00;22.10;;;10.53;;
6852;SDS011;3465;42.144;24.722;2022-12-20T13:10:55;25.63;;;11.20;;
6852;SDS011;3465;42.144;24.722;2022-12-20T13:20:16;22.00;;;10.63;;
6852;SDS011;3465;42.144;24.722;2022-12-20T13:25:29;20.93;;;9.73;;
6852;SDS011;3465;42.144;24.722;2022-12-20T13:28:19;23.40;;;10.67;;
6852;SDS011;3465;42.144;24.722;2022-12-20T13:30:43;23.43;;;10.03;;
6852;SDS011;3465;42.144;24.722;2022-12-20T13:38:50;22.97;;;9.60;;
6852;SDS011;3465;42.144;24.722;2022-12-20T13:44:27;25.00;;;11.50;;
6852;SDS011;3465;42.144;24.722;2022-12-20T13:49:40;28.27;;;11.13;;
6852;SDS011;3465;42.144;24.722;2022-12-20T13:54:39;28.57;;;11.43;;
6852;SDS011;3465;42.144;24.722;2022-12-20T13:57:06;30.10;;;11.33;;
6852;SDS011;3465;42.144;24.722;2022-12-20T13:59:33;23.87;;;10.87;;
6852;SDS011;3465;42.144;24.722;2022-12-20T14:01:59;26.00;;;10.97;;
6852;SDS011;3465;42.144;24.722;2022-12-20T14:04:38;27.40;;;10.80;;
6852;SDS011;3465;42.144;24.722;2022-12-20T14:07:07;24.60;;;11.70;;
6852;SDS011;3465;42.144;24.722;2022-12-20T14:09:37;28.70;;;12.40;;
6852;SDS011;3465;42.144;24.722;2022-12-20T14:12:08;48.90;;;18.37;;
6852;SDS011;3465;42.144;24.722;2022-12-20T14:14:37;27.20;;;13.47;;
6852;SDS011;3465;42.144;24.722;2022-12-20T14:17:16;30.07;;;14.63;;
6852;SDS011;3465;42.144;24.722;2022-12-20T14:22:33;22.53;;;11.23;;
6852;SDS011;3465;42.144;24.722;2022-12-20T14:24:59;27.70;;;11.77;;
6852;SDS011;3465;42.144;24.722;2022-12-20T14:27:26;25.90;;;11.83;;
6852;SDS011;3465;42.144;24.722;2022-12-20T14:29:57;25.73;;;10.87;;
6852;SDS011;3465;42.144;24.722;2022-12-20T14:32:24;26.17;;;10.80;;
6852;SDS011;3465;42.144;24.722;2022-12-20T14:34:49;24.83;;;10.87;;
6852;SDS011;3465;42.144;24.722;2022-12-20T14:42:45;42.30;;;14.17;;
6852;SDS011;3465;42.144;24.722;2022-12-20T14:47:37;40.20;;;13.80;;
6852;SDS011;3465;42.144;24.722;2022-12-20T14:50:23;44.63;;;13.73;;
6852;SDS011;3465;42.144;24.722;2022-12-20T14:52:52;40.57;;;13.47;;
6852;SDS011;3465;42.144;24.722;2022-12-20T14:55:21;36.73;;;13.97;;
6852;SDS011;3465;42.144;24.722;2022-12-20T14:57:50;38.23;;;13.37;;
6852;SDS011;3465;42.144;24.722;2022-12-20T15:08:16;58.93;;;15.90;;
6852;SDS011;3465;42.144;24.722;2022-12-20T15:13:42;33.53;;;13.50;;
6852;SDS011;3465;42.144;24.722;2022-12-20T15:18:44;33.97;;;14.00;;
6852;SDS011;3465;42.144;24.722;2022-12-20T15:21:14;44.20;;;15.00;;
6852;SDS011;3465;42.144;24.722;2022-12-20T15:23:47;35.60;;;14.47;;
6852;SDS011;3465;42.144;24.722;2022-12-20T15:26:18;36.30;;;15.67;;
6852;SDS011;3465;42.144;24.722;2022-12-20T15:28:45;82.47;;;33.17;;
6852;SDS011;3465;42.144;24.722;2022-12-20T15:31:11;74.47;;;29.50;;
6852;SDS011;3465;42.144;24.722;2022-12-20T15:33:40;55.50;;;18.33;;
6852;SDS011;3465;42.144;24.722;2022-12-20T15:38:41;70.50;;;27.37;;
6852;SDS011;3465;42.144;24.722;2022-12-20T15:41:08;101.03;;;38.10;;
6852;SDS011;3465;42.144;24.722;2022-12-20T15:43:41;79.70;;;28.93;;
6852;SDS011;3465;42.144;24.722;2022-12-20T15:46:07;55.77;;;18.93;;
6852;SDS011;3465;42.144;24.722;2022-12-20T15:48:32;52.13;;;20.10;;
6852;SDS011;3465;42.144;24.722;2022-12-20T15:50:58;58.83;;;20.60;;
6852;SDS011;3465;42.144;24.722;2022-12-20T15:53:25;121.77;;;33.07;;
6852;SDS011;3465;42.144;24.722;2022-12-20T15:55:53;255.27;;;68.83;;
6852;SDS011;3465;42.144;24.722;2022-12-20T15:58:20;256.80;;;69.03;;
6852;SDS011;3465;42.144;24.722;2022-12-20T16:00:47;81.27;;;28.27;;
6852;SDS011;3465;42.144;24.722;2022-12-20T16:03:22;73.40;;;27.57;;
6852;SDS011;3465;42.144;24.722;2022-12-20T16:05:51;48.73;;;19.67;;
6852;SDS011;3465;42.144;24.722;2022-12-20T16:08:16;35.63;;;14.80;;
6852;SDS011;3465;42.144;24.722;2022-12-20T16:10:45;38.17;;;15.33;;
6852;SDS011;3465;42.144;24.722;2022-12-20T16:13:15;40.13;;;14.90;;
6852;SDS011;3465;42.144;24.722;2022-12-20T16:15:44;41.47;;;15.77;;
6852;SDS011;3465;42.144;24.722;2022-12-20T16:18:10;46.67;;;15.33;;
6852;SDS011;3465;42.144;24.722;2022-12-20T16:20:36;38.40;;;15.50;;
6852;SDS011;3465;42.144;24.722;2022-12-20T16:23:02;56.20;;;16.17;;
6852;SDS011;3465;42.144;24.722;2022-12-20T16:25:33;52.83;;;18.37;;
6852;SDS011;3465;42.144;24.722;2022-12-20T16:28:01;49.33;;;18.53;;
6852;SDS011;3465;42.144;24.722;2022-12-20T16:30:26;58.40;;;21.30;;
6852;SDS011;3465;42.144;24.722;2022-12-20T16:32:52;47.17;;;21.17;;
6852;SDS011;3465;42.144;24.722;2022-12-20T16:35:26;51.77;;;21.37;;
6852;SDS011;3465;42.144;24.722;2022-12-20T16:37:54;53.93;;;20.90;;
6852;SDS011;3465;42.144;24.722;2022-12-20T16:40:20;55.60;;;19.83;;
6852;SDS011;3465;42.144;24.722;2022-12-20T16:42:47;56.33;;;20.53;;
6852;SDS011;3465;42.144;24.722;2022-12-20T16:45:18;46.70;;;19.73;;
6852;SDS011;3465;42.144;24.722;2022-12-20T16:47:46;52.10;;;21.30;;
6852;SDS011;3465;42.144;24.722;2022-12-20T16:50:13;59.20;;;23.13;;
6852;SDS011;3465;42.144;24.722;2022-12-20T16:52:39;57.37;;;22.63;;
6852;SDS011;3465;42.144;24.722;2022-12-20T16:55:05;58.00;;;24.73;;
6852;SDS011;3465;42.144;24.722;2022-12-20T16:57:31;52.17;;;19.67;;
6852;SDS011;3465;42.144;24.722;2022-12-20T16:59:57;57.90;;;22.87;;
6852;SDS011;3465;42.144;24.722;2022-12-20T17:02:29;61.03;;;25.13;;
6852;SDS011;3465;42.144;24.722;2022-12-20T17:04:57;58.83;;;23.83;;
6852;SDS011;3465;42.144;24.722;2022-12-20T17:07:23;65.27;;;24.60;;
6852;SDS011;3465;42.144;24.722;2022-12-20T17:09:49;86.57;;;28.47;;
6852;SDS011;3465;42.144;24.722;2022-12-20T17:12:16;78.50;;;29.27;;
6852;SDS011;3465;42.144;24.722;2022-12-20T17:14:46;75.03;;;27.63;;
6852;SDS011;3465;42.144;24.722;2022-12-20T17:17:12;69.57;;;25.73;;
6852;SDS011;3465;42.144;24.722;2022-12-20T17:19:38;69.77;;;26.60;;
6852;SDS011;3465;42.144;24.722;2022-12-20T17:22:04;55.80;;;22.90;;
6852;SDS011;3465;42.144;24.722;2022-12-20T17:24:30;51.70;;;22.80;;
6852;SDS011;3465;42.144;24.722;2022-12-20T17:26:56;61.93;;;23.30;;
6852;SDS011;3465;42.144;24.722;2022-12-20T17:29:25;60.87;;;22.83;;
6852;SDS011;3465;42.144;24.722;2022-12-20T17:31:50;67.13;;;25.13;;
6852;SDS011;3465;42.144;24.722;2022-12-20T17:34:23;76.13;;;27.40;;